Time;durP1;ratioP1;P1;durP2;ratioP2;P2;SDS_P1;SDS_P2;PMS_P1;PMS_P2;Temp;Humidity;BMP_temperature;BMP_pressure;BME280_temperature;BME280_humidity;BME280_pressure;Samples;Min_cycle;Max_cycle;Signal;HPM_P1;HPM_P2
2022/09/08 00:00:38;;;;;;;;;;;;;;;16.77;47.31;101196.97;5072930;28;921;-50
2022/09/08 00:03:04;;;;;;;;;;;;;;;16.77;46.66;101190.63;5076284;28;1013;-53
2022/09/08 00:05:30;;;;;;;;;;;;;;;16.73;46.14;101189.50;5081546;28;1091;-54
2022/09/08 00:07:55;;;;;;;;;;;;;;;16.61;46.11;101181.47;5058865;28;917;-55
2022/09/08 00:10:21;;;;;;;;;;;;;;;16.58;45.67;101179.28;5076668;28;1163;-53
2022/09/08 00:12:47;;;;;;;;;;;;;;;17.23;46.25;101188.16;5076805;28;1056;-52
2022/09/08 00:15:12;;;;;;;;;;;;;;;17.48;47.57;101183.06;5083597;28;1176;-52
2022/09/08 00:17:37;;;;;;;;;;;;;;;17.10;47.51;101184.00;5082994;28;1913;-53
2022/09/08 00:20:03;;;;;;;;;;;;;;;16.92;47.09;101179.78;5076782;28;977;-53
2022/09/08 00:22:29;;;;;;;;;;;;;;;16.83;46.69;101173.13;5076432;28;1092;-54
2022/09/08 00:24:55;;;;;;;;;;;;;;;16.74;46.06;101180.19;5092617;28;976;-53
2022/09/08 00:27:20;;;;;;;;;;;;;;;16.76;45.97;101176.09;5080203;28;1856;-53
2022/09/08 00:29:46;;;;;;;;;;;;;;;16.72;45.75;101174.97;5077642;28;961;-53
2022/09/08 00:32:11;;;;;;;;;;;;;;;17.35;47.00;101185.22;5076272;28;992;-55
2022/09/08 00:34:37;;;;;;;;;;;;;;;16.91;47.21;101182.78;5076340;28;1080;-53
2022/09/08 00:37:02;;;;;;;;;;;;;;;16.81;46.95;101182.72;5076359;28;1980;-55
2022/09/08 00:39:28;;;;;;;;;;;;;;;16.72;46.25;101174.97;5075813;28;1195;-53
2022/09/08 00:41:54;;;;;;;;;;;;;;;16.57;46.29;101175.69;5075757;28;901;-54
2022/09/08 00:44:32;;;;;;;;;;;;;;;16.58;45.90;101174.59;5076451;28;1103;-51
2022/09/08 00:46:57;;;;;;;;;;;;;;;17.86;47.27;101172.69;5076280;28;1293;-55
2022/09/08 00:49:23;;;;;;;;;;;;;;;17.12;48.10;101167.22;5076386;28;1029;-53
2022/09/08 00:51:49;;;;;;;;;;;;;;;16.96;47.46;101168.25;5076046;28;985;-52
2022/09/08 00:54:16;;;;;;;;;;;;;;;16.73;47.10;101165.63;5070608;28;818;-54
2022/09/08 00:56:42;;;;;;;;;;;;;;;17.76;47.20;101162.50;5076183;28;2246;-54
2022/09/08 00:59:07;;;;;;;;;;;;;;;17.05;48.03;101167.47;5058123;28;1964;-54
2022/09/08 01:01:33;;;;;;;;;;;;;;;16.91;47.38;101171.81;5075740;28;978;-52
2022/09/08 01:03:58;;;;;;;;;;;;;;;17.75;47.33;101169.94;5073329;28;1349;-50
2022/09/08 01:12:43;;;;;;;;;;;;;;;17.13;48.00;101163.41;5075651;28;1028;-53
2022/09/08 01:14:46;;;;;;;;;;;;;;;16.82;46.05;101163.22;5082144;28;1035;-53
2022/09/08 01:17:15;;;;;;;;;;;;;;;16.67;46.23;101165.88;5079933;28;1913;-54
2022/09/08 01:19:41;;;;;;;;;;;;;;;17.38;47.50;101170.91;5078417;28;962;-52
2022/09/08 01:22:26;;;;;;;;;;;;;;;17.03;47.51;101164.19;5080168;28;981;-55
2022/09/08 01:25:10;;;;;;;;;;;;;;;16.88;46.91;101156.69;5074310;28;985;-53
2022/09/08 01:27:36;;;;;;;;;;;;;;;17.02;47.03;101168.00;5080471;28;2333;-54
2022/09/08 01:30:02;;;;;;;;;;;;;;;17.40;47.73;101163.25;5072702;28;1083;-53
2022/09/08 01:32:29;;;;;;;;;;;;;;;17.01;47.69;101157.28;5086824;28;1000;-54
2022/09/08 01:34:54;;;;;;;;;;;;;;;16.91;47.23;101150.66;5062011;28;1160;-54
2022/09/08 01:37:19;;;;;;;;;;;;;;;16.86;46.66;101153.34;5079713;28;1909;-53
2022/09/08 01:39:45;;;;;;;;;;;;;;;16.81;46.06;101158.00;5079580;28;1112;-55
2022/09/08 01:42:10;;;;;;;;;;;;;;;16.61;46.37;101162.25;5076210;28;1005;-55
2022/09/08 01:44:36;;;;;;;;;;;;;;;16.69;45.67;101153.53;5085119;28;1195;-53
2022/09/08 01:47:01;;;;;;;;;;;;;;;17.50;46.49;101156.09;5079762;28;1024;-55
2022/09/08 01:49:27;;;;;;;;;;;;;;;17.15;47.33;101163.13;5080537;28;1019;-53
2022/09/08 01:51:52;;;;;;;;;;;;;;;16.83;47.44;101161.28;5088317;28;1202;-54
2022/09/08 01:54:18;;;;;;;;;;;;;;;16.84;46.62;101163.75;5094453;28;1011;-54
2022/09/08 01:56:43;;;;;;;;;;;;;;;16.77;46.08;101164.03;5082143;28;2230;-52
2022/09/08 01:59:09;;;;;;;;;;;;;;;16.60;46.16;101155.91;5079422;28;1906;-53
2022/09/08 02:01:34;;;;;;;;;;;;;;;17.43;46.99;101159.94;5078753;28;1079;-53
2022/09/08 02:04:00;;;;;;;;;;;;;;;17.02;47.37;101154.28;5078908;28;993;-54
2022/09/08 02:06:25;;;;;;;;;;;;;;;16.88;47.07;101150.34;5081818;28;1036;-51
2022/09/08 02:08:51;;;;;;;;;;;;;;;16.74;46.25;101145.31;5087926;28;1060;-53
2022/09/08 02:11:17;;;;;;;;;;;;;;;17.80;46.66;101144.38;5078719;28;1021;-53
2022/09/08 02:13:42;;;;;;;;;;;;;;;17.17;47.50;101141.72;5080775;28;1024;-52
2022/09/08 02:16:09;;;;;;;;;;;;;;;16.85;47.24;101143.44;5082460;28;1100;-51
2022/09/08 02:18:35;;;;;;;;;;;;;;;16.79;46.54;101129.94;5087435;28;1980;-51
2022/09/08 02:21:20;;;;;;;;;;;;;;;16.65;46.47;101140.56;5076116;28;1151;-53
2022/09/08 02:23:46;;;;;;;;;;;;;;;16.74;45.57;101139.81;5078006;28;1089;-56
2022/09/08 02:26:16;;;;;;;;;;;;;;;16.71;45.49;101137.59;5078030;28;2361;-53
2022/09/08 02:28:41;;;;;;;;;;;;;;;16.57;45.54;101136.44;5078765;28;1103;-51
2022/09/08 02:31:07;;;;;;;;;;;;;;;17.44;46.42;101136.84;5081484;28;1084;-53
2022/09/08 02:33:32;;;;;;;;;;;;;;;16.92;47.26;101141.31;5077766;28;1142;-53
2022/09/08 02:35:58;;;;;;;;;;;;;;;16.74;46.67;101139.00;5078907;28;997;-53
2022/09/08 02:38:23;;;;;;;;;;;;;;;16.74;46.24;101133.50;5078644;28;1982;-54
2022/09/08 02:40:49;;;;;;;;;;;;;;;16.88;46.32;101131.94;5089974;28;1094;-53
2022/09/08 02:43:15;;;;;;;;;;;;;;;17.02;47.27;101142.47;5087878;28;965;-56
2022/09/08 02:45:40;;;;;;;;;;;;;;;16.85;46.97;101134.41;5078900;28;1115;-53
2022/09/08 02:48:06;;;;;;;;;;;;;;;16.74;46.45;101131.56;5078548;28;1013;-51
2022/09/08 02:50:31;;;;;;;;;;;;;;;16.66;46.09;101123.88;5078346;28;1037;-52
2022/09/08 02:52:57;;;;;;;;;;;;;;;16.51;46.16;101131.97;5078042;28;965;-54
2022/09/08 02:55:23;;;;;;;;;;;;;;;17.73;46.45;101133.63;5082709;28;1209;-53
2022/09/08 02:57:51;;;;;;;;;;;;;;;16.98;47.55;101122.94;5077699;28;2660;-53
2022/09/08 03:00:17;;;;;;;;;;;;;;;16.81;46.93;101131.34;5077661;28;1270;-54
2022/09/08 03:02:43;;;;;;;;;;;;;;;16.72;46.31;101131.03;5086913;28;1008;-52
2022/09/08 03:05:09;;;;;;;;;;;;;;;16.67;46.15;101120.00;5082121;28;965;-52
2022/09/08 03:07:35;;;;;;;;;;;;;;;16.63;46.34;101127.13;5078864;28;897;-54
2022/09/08 03:10:02;;;;;;;;;;;;;;;17.58;46.97;101128.91;5078174;28;985;-53
2022/09/08 03:12:27;;;;;;;;;;;;;;;17.00;47.46;101125.41;5077765;28;1172;-53
2022/09/08 03:14:54;;;;;;;;;;;;;;;18.12;47.20;101124.06;5080385;28;1159;-48
2022/09/08 03:17:20;;;;;;;;;;;;;;;17.45;48.36;101124.75;5074404;28;1975;-55
2022/09/08 03:19:46;;;;;;;;;;;;;;;17.14;48.01;101125.75;5082575;28;1159;-54
2022/09/08 03:22:11;;;;;;;;;;;;;;;17.06;47.10;101127.09;5077881;28;1025;-56
2022/09/08 03:24:37;;;;;;;;;;;;;;;16.95;46.84;101128.16;5077979;28;1076;-52
2022/09/08 03:27:03;;;;;;;;;;;;;;;16.82;46.34;101129.44;5087232;28;2366;-52
2022/09/08 03:29:29;;;;;;;;;;;;;;;16.83;45.69;101142.06;5077233;28;1170;-54
2022/09/08 03:31:54;;;;;;;;;;;;;;;17.55;46.96;101137.69;5076191;28;961;-55
2022/09/08 03:34:20;;;;;;;;;;;;;;;17.16;47.81;101135.38;5077995;28;1119;-55
2022/09/08 03:36:45;;;;;;;;;;;;;;;17.64;47.90;101140.75;5076699;28;1158;-55
2022/09/08 03:39:10;;;;;;;;;;;;;;;17.08;50.95;101142.22;5072873;28;1976;-50
2022/09/08 03:41:36;;;;;;;;;;;;;;;15.59;53.98;101135.56;5076452;28;989;-49
2022/09/08 03:44:01;;;;;;;;;;;;;;;17.31;50.83;101142.88;5087345;28;981;-50
2022/09/08 03:46:27;;;;;;;;;;;;;;;17.47;50.35;101132.72;5077351;28;1076;-51
2022/09/08 03:48:52;;;;;;;;;;;;;;;17.05;49.87;101142.75;5077571;28;1056;-52
2022/09/08 03:51:25;;;;;;;;;;;;;;;16.98;48.40;101135.84;5073340;28;1186;-51
2022/09/08 03:53:51;;;;;;;;;;;;;;;16.94;49.14;101141.03;5065269;28;1223;-53
2022/09/08 03:56:16;;;;;;;;;;;;;;;17.04;48.99;101143.00;5075133;28;2324;-51
2022/09/08 03:58:42;;;;;;;;;;;;;;;16.86;47.87;101147.84;5070802;28;2059;-49
2022/09/08 04:01:11;;;;;;;;;;;;;;;17.30;48.97;101138.47;5085476;28;1008;-49
2022/09/08 04:03:36;;;;;;;;;;;;;;;17.28;49.59;101140.66;5078220;28;1259;-53
2022/09/08 04:06:03;;;;;;;;;;;;;;;17.03;49.77;101144.94;5075652;28;2809;-55
2022/09/08 04:08:29;;;;;;;;;;;;;;;17.16;49.13;101138.13;5071098;28;1792;-53
2022/09/08 04:10:55;;;;;;;;;;;;;;;17.06;49.33;101130.66;5078806;28;2061;-51
2022/09/08 04:13:20;;;;;;;;;;;;;;;17.01;49.44;101136.16;5072978;28;1917;-53
2022/09/08 04:15:46;;;;;;;;;;;;;;;17.08;48.90;101139.47;5078692;28;2038;-51
2022/09/08 04:18:12;;;;;;;;;;;;;;;17.13;48.66;101129.63;5078522;28;1976;-49
2022/09/08 04:20:38;;;;;;;;;;;;;;;16.99;48.56;101134.78;5085073;28;2108;-51
2022/09/08 04:23:04;;;;;;;;;;;;;;;17.10;48.30;101141.97;5085307;28;1060;-56
2022/09/08 04:25:29;;;;;;;;;;;;;;;17.10;48.29;101140.03;5088212;28;1202;-54
2022/09/08 04:27:54;;;;;;;;;;;;;;;17.07;48.15;101143.31;5076270;28;1115;-55
2022/09/08 04:30:21;;;;;;;;;;;;;;;17.02;48.15;101139.72;5076550;28;1028;-53
2022/09/08 04:32:46;;;;;;;;;;;;;;;16.98;47.45;101144.09;5089380;28;880;-53
2022/09/08 04:35:12;;;;;;;;;;;;;;;16.87;47.27;101149.53;5076091;28;1195;-54
2022/09/08 04:37:38;;;;;;;;;;;;;;;16.89;46.71;101154.78;5075529;28;1910;-56
2022/09/08 04:40:06;;;;;;;;;;;;;;;16.73;46.50;101138.19;5076062;28;1159;-56
2022/09/08 04:42:33;;;;;;;;;;;;;;;16.69;46.33;101153.53;5075074;28;1047;-56
2022/09/08 04:44:59;;;;;;;;;;;;;;;16.66;46.22;101159.56;5069205;28;1077;-55
2022/09/08 04:47:24;;;;;;;;;;;;;;;16.67;45.87;101155.69;5075104;28;1357;-54
2022/09/08 04:49:50;;;;;;;;;;;;;;;16.60;46.10;101155.91;5069965;28;2360;-53
2022/09/08 04:52:16;;;;;;;;;;;;;;;16.48;46.00;101162.69;5075480;28;1201;-56
2022/09/08 04:54:41;;;;;;;;;;;;;;;16.54;45.74;101173.47;5075498;28;1469;-54
2022/09/08 04:57:06;;;;;;;;;;;;;;;16.43;45.87;101167.06;5075604;28;1905;-53
2022/09/08 04:59:33;;;;;;;;;;;;;;;17.31;47.47;101175.03;5080915;28;1107;-51
2022/09/08 05:01:58;;;;;;;;;;;;;;;16.83;47.83;101175.00;5089458;28;1023;-55
2022/09/08 05:04:24;;;;;;;;;;;;;;;16.68;47.37;101173.84;5067901;28;1188;-49
2022/09/08 05:06:49;;;;;;;;;;;;;;;16.62;47.03;101169.41;5079756;28;1110;-48
2022/09/08 05:09:15;;;;;;;;;;;;;;;16.60;46.77;101182.56;5077781;28;866;-50
2022/09/08 05:11:40;;;;;;;;;;;;;;;16.55;46.24;101182.50;5076427;28;1203;-51
2022/09/08 05:14:06;;;;;;;;;;;;;;;16.45;46.31;101177.78;5082329;28;960;-50
2022/09/08 05:16:33;;;;;;;;;;;;;;;16.45;46.05;101175.03;5076226;28;1218;-51
2022/09/08 05:18:59;;;;;;;;;;;;;;;16.46;45.96;101171.19;5082461;28;1906;-53
2022/09/08 05:21:25;;;;;;;;;;;;;;;16.36;45.88;101177.44;5083616;28;957;-48
2022/09/08 05:23:51;;;;;;;;;;;;;;;16.43;45.76;101172.56;5076610;28;1005;-48
2022/09/08 05:26:17;;;;;;;;;;;;;;;16.33;45.97;101177.16;5076380;28;957;-45
2022/09/08 05:28:42;;;;;;;;;;;;;;;16.34;45.86;101176.88;5075811;28;1053;-50
2022/09/08 05:31:09;;;;;;;;;;;;;;;16.35;45.93;101178.53;5076161;28;996;-50
2022/09/08 05:33:34;;;;;;;;;;;;;;;16.76;46.73;101181.59;5083085;28;996;-48
2022/09/08 05:36:00;;;;;;;;;;;;;;;16.84;47.81;101172.00;5077267;28;1078;-45
2022/09/08 05:38:25;;;;;;;;;;;;;;;16.52;47.99;101178.41;5084785;28;1961;-49
2022/09/08 05:40:51;;;;;;;;;;;;;;;16.57;47.04;101178.41;5058512;28;981;-46
2022/09/08 05:43:16;;;;;;;;;;;;;;;17.93;45.26;101178.78;5076661;28;1088;-48
2022/09/08 05:45:45;;;;;;;;;;;;;;;17.34;46.96;101177.25;5076076;28;989;-51
2022/09/08 05:48:11;;;;;;;;;;;;;;;17.06;47.96;101179.31;5075972;28;1077;-51
2022/09/08 05:50:36;;;;;;;;;;;;;;;16.92;48.50;101178.97;5076262;28;2649;-51
2022/09/08 05:53:02;;;;;;;;;;;;;;;16.82;48.92;101178.88;5088906;28;1030;-49
2022/09/08 05:55:28;;;;;;;;;;;;;;;16.74;49.38;101181.00;5075601;28;1189;-47
2022/09/08 05:57:54;;;;;;;;;;;;;;;16.65;50.01;101185.34;5068541;28;1981;-46
2022/09/08 06:00:20;;;;;;;;;;;;;;;16.60;49.94;101179.81;5077039;28;1044;-48
2022/09/08 06:02:49;;;;;;;;;;;;;;;16.57;50.24;101183.09;5083648;28;1047;-50
2022/09/08 06:05:16;;;;;;;;;;;;;;;16.51;50.69;101184.13;5078862;28;1048;-52
2022/09/08 06:07:41;;;;;;;;;;;;;;;16.48;51.13;101170.94;5088050;28;972;-49
2022/09/08 06:10:08;;;;;;;;;;;;;;;16.39;51.37;101176.91;5079283;28;1099;-49
2022/09/08 06:12:33;;;;;;;;;;;;;;;16.41;51.29;101174.75;5078929;28;1039;-52
2022/09/08 06:14:58;;;;;;;;;;;;;;;16.32;51.62;101181.81;5086009;28;1083;-47
2022/09/08 06:17:24;;;;;;;;;;;;;;;16.29;51.95;101182.31;5083725;28;1906;-49
2022/09/08 06:19:49;;;;;;;;;;;;;;;16.24;52.22;101176.78;5075742;28;2369;-49
2022/09/08 06:22:15;;;;;;;;;;;;;;;16.22;52.39;101181.72;5082286;28;1012;-46
2022/09/08 06:24:40;;;;;;;;;;;;;;;16.17;52.73;101178.94;5078881;28;1231;-50
2022/09/08 06:27:24;;;;;;;;;;;;;;;16.14;52.77;101172.03;5073136;28;989;-49
2022/09/08 06:29:59;;;;;;;;;;;;;;;16.12;52.89;101176.13;5078815;28;1025;-51
2022/09/08 06:32:37;;;;;;;;;;;;;;;16.12;53.13;101179.72;5049603;28;1048;-50
2022/09/08 06:35:09;;;;;;;;;;;;;;;16.10;53.26;101181.06;5079227;28;1177;-51
2022/09/08 06:37:48;;;;;;;;;;;;;;;16.07;53.51;101176.91;5061194;28;1960;-52
2022/09/08 06:40:19;;;;;;;;;;;;;;;16.04;53.41;101183.75;5076033;28;973;-48
2022/09/08 06:42:48;;;;;;;;;;;;;;;15.99;53.86;101194.69;5060507;28;993;-45
2022/09/08 06:45:24;;;;;;;;;;;;;;;15.96;53.94;101184.22;5083929;28;1104;-52
2022/09/08 06:47:54;;;;;;;;;;;;;;;15.96;53.84;101186.97;5084360;28;1219;-50
2022/09/08 06:50:20;;;;;;;;;;;;;;;15.92;54.11;101188.56;5061908;28;1119;-48
2022/09/08 06:52:46;;;;;;;;;;;;;;;15.95;53.87;101195.44;5059735;28;1067;-51
2022/09/08 06:55:15;;;;;;;;;;;;;;;15.90;54.39;101196.22;5086146;28;948;-52
2022/09/08 06:57:47;;;;;;;;;;;;;;;15.90;54.20;101208.03;5068158;28;1893;-51
2022/09/08 07:00:18;;;;;;;;;;;;;;;16.97;52.36;101200.97;5087944;28;1044;-51
2022/09/08 07:02:44;;;;;;;;;;;;;;;16.91;52.42;101194.63;5080959;28;1035;-50
2022/09/08 07:05:12;;;;;;;;;;;;;;;16.50;53.67;101191.56;5078483;28;989;-52
2022/09/08 07:07:41;;;;;;;;;;;;;;;16.33;54.15;101183.47;5089542;28;1036;-48
2022/09/08 07:10:11;;;;;;;;;;;;;;;16.22;54.71;101189.97;5083086;28;830;-47
2022/09/08 07:12:41;;;;;;;;;;;;;;;16.18;54.68;101197.06;5083261;28;1159;-52
2022/09/08 07:15:25;;;;;;;;;;;;;;;16.11;54.80;101197.25;5082832;28;1234;-49
2022/09/08 07:18:10;;;;;;;;;;;;;;;16.08;55.06;101201.34;5091258;28;1898;-48
2022/09/08 07:20:36;;;;;;;;;;;;;;;16.07;55.05;101201.59;5060140;28;1013;-49
2022/09/08 07:23:03;;;;;;;;;;;;;;;16.03;55.02;101201.31;5078050;28;973;-48
2022/09/08 07:25:32;;;;;;;;;;;;;;;16.00;55.34;101201.00;5060524;28;1064;-51
2022/09/08 07:28:02;;;;;;;;;;;;;;;15.94;55.54;101193.81;5060458;28;978;-49
2022/09/08 07:30:28;;;;;;;;;;;;;;;15.95;55.33;101199.03;5078246;28;1001;-48
2022/09/08 07:32:55;;;;;;;;;;;;;;;15.96;55.57;101189.69;5079515;28;961;-49
2022/09/08 07:35:23;;;;;;;;;;;;;;;16.77;54.48;101198.88;5059769;28;1099;-53
2022/09/08 07:37:50;;;;;;;;;;;;;;;17.03;53.64;101201.81;5077686;28;1972;-53
2022/09/08 07:40:19;;;;;;;;;;;;;;;16.55;55.11;101204.47;5078319;28;1004;-54
2022/09/08 07:42:50;;;;;;;;;;;;;;;16.40;55.52;101203.28;5077160;28;966;-49
2022/09/08 07:45:16;;;;;;;;;;;;;;;16.33;55.75;101204.59;5061881;28;1286;-51
2022/09/08 07:47:41;;;;;;;;;;;;;;;16.23;55.80;101205.34;5085427;28;1076;-52
2022/09/08 07:50:53;;;;;;;;;;;;;;;16.20;55.66;101208.56;5077191;28;1182;-51
2022/09/08 07:53:23;;;;;;;;;;;;;;;16.13;55.96;101214.31;5077023;28;1472;-51
2022/09/08 07:55:48;;;;;;;;;;;;;;;16.11;55.93;101218.38;5080341;28;1040;-48
2022/09/08 07:58:18;;;;;;;;;;;;;;;16.09;55.97;101215.91;5061256;28;1918;-50
2022/09/08 08:00:49;;;;;;;;;;;;;;;16.03;56.12;101216.94;5075240;28;1100;-53
2022/09/08 08:03:18;;;;;;;;;;;;;;;16.03;55.94;101206.81;5062025;28;1262;-53
2022/09/08 08:06:16;;;;;;;;;;;;;;;15.98;56.01;101201.25;5077679;28;1005;-50
2022/09/08 08:08:44;;;;;;;;;;;;;;;15.98;56.20;101204.00;5019131;28;1313;-52
2022/09/08 08:11:10;;;;;;;;;;;;;;;15.92;56.43;101196.78;5077295;28;1139;-51
2022/09/08 08:13:42;;;;;;;;;;;;;;;17.41;53.89;101195.13;5077268;28;1399;-52
2022/09/08 08:16:09;;;;;;;;;;;;;;;16.86;55.32;101201.97;5083381;28;925;-51
2022/09/08 08:18:49;;;;;;;;;;;;;;;16.57;56.01;101192.16;5077270;28;1983;-48
2022/09/08 08:21:22;;;;;;;;;;;;;;;16.41;56.22;101190.38;5078022;28;1044;-53
2022/09/08 08:24:00;;;;;;;;;;;;;;;16.36;56.34;101176.63;5054517;28;1378;-53
2022/09/08 08:26:33;;;;;;;;;;;;;;;16.26;56.23;101188.34;5078157;28;1078;-56
2022/09/08 08:29:13;;;;;;;;;;;;;;;16.23;56.26;101188.88;5088409;28;1004;-54
2022/09/08 08:31:41;;;;;;;;;;;;;;;16.12;56.40;101182.47;5084477;28;1154;-55
2022/09/08 08:34:16;;;;;;;;;;;;;;;16.13;56.29;101183.28;5046602;28;857;-56
2022/09/08 08:36:43;;;;;;;;;;;;;;;16.04;56.76;101180.19;5058861;28;1171;-55
2022/09/08 08:39:11;;;;;;;;;;;;;;;16.08;56.43;101186.81;5059344;28;1971;-50
2022/09/08 08:41:46;;;;;;;;;;;;;;;16.08;56.51;101182.13;5076536;28;1143;-54
2022/09/08 08:44:17;;;;;;;;;;;;;;;16.86;55.43;101180.81;5076924;28;1060;-54
2022/09/08 08:46:43;;;;;;;;;;;;;;;17.13;54.83;101185.38;5087674;28;1226;-53
2022/09/08 08:49:17;;;;;;;;;;;;;;;16.65;56.47;101190.00;5076951;28;953;-55
2022/09/08 08:52:02;;;;;;;;;;;;;;;16.48;56.82;101199.22;5077284;28;1171;-53
2022/09/08 08:54:41;;;;;;;;;;;;;;;16.45;56.71;101174.22;5087833;28;874;-51
2022/09/08 08:57:13;;;;;;;;;;;;;;;16.34;56.57;101178.78;5060517;28;1917;-54
2022/09/08 08:59:44;;;;;;;;;;;;;;;16.26;56.73;101169.13;5050282;28;1056;-52
2022/09/08 09:02:23;;;;;;;;;;;;;;;16.24;56.65;101174.03;5055684;28;1172;-52
2022/09/08 09:04:48;;;;;;;;;;;;;;;16.16;56.72;101169.03;5038690;28;1002;-55
2022/09/08 09:07:26;;;;;;;;;;;;;;;16.19;56.62;101152.06;5056378;28;1128;-55
2022/09/08 09:09:57;;;;;;;;;;;;;;;16.15;56.51;101164.66;5050742;28;1044;-56
2022/09/08 09:12:32;;;;;;;;;;;;;;;16.14;56.61;101157.50;5062771;28;1070;-54
2022/09/08 09:15:16;;;;;;;;;;;;;;;16.05;56.53;101166.22;5060239;28;1527;-55
2022/09/08 09:17:42;;;;;;;;;;;;;;;16.04;56.66;101152.75;5050361;28;1976;-51
2022/09/08 09:20:11;;;;;;;;;;;;;;;16.46;56.47;101157.47;5056514;28;1001;-53
2022/09/08 09:22:37;;;;;;;;;;;;;;;17.37;54.98;101151.94;5052888;28;1248;-53
2022/09/08 09:25:02;;;;;;;;;;;;;;;16.69;56.60;101139.81;5056006;28;981;-52
2022/09/08 09:27:50;;;;;;;;;;;;;;;16.52;56.99;101142.72;5056418;28;1005;-53
2022/09/08 09:30:19;;;;;;;;;;;;;;;16.45;57.20;101146.75;5049740;28;938;-52
2022/09/08 09:32:48;;;;;;;;;;;;;;;16.37;57.20;101142.59;5056206;28;1020;-51
2022/09/08 09:35:32;;;;;;;;;;;;;;;16.33;57.09;101139.56;5066001;28;941;-50
2022/09/08 09:38:04;;;;;;;;;;;;;;;16.26;56.93;101133.47;5060581;28;1981;-52
2022/09/08 09:40:32;;;;;;;;;;;;;;;16.21;57.03;101130.66;5059036;28;988;-50
2022/09/08 09:43:00;;;;;;;;;;;;;;;16.20;56.96;101140.84;5060557;28;1005;-51
2022/09/08 09:45:30;;;;;;;;;;;;;;;16.15;57.10;101139.97;5041876;28;1001;-51
2022/09/08 09:48:10;;;;;;;;;;;;;;;16.12;56.77;101126.75;5046660;28;985;-52
2022/09/08 09:50:48;;;;;;;;;;;;;;;16.11;57.06;101130.59;5060177;28;1061;-52
2022/09/08 09:53:32;;;;;;;;;;;;;;;16.05;57.13;101122.31;5044032;28;1152;-52
2022/09/08 09:56:23;;;;;;;;;;;;;;;16.06;56.89;101121.25;5069081;28;1453;-51
2022/09/08 09:58:55;;;;;;;;;;;;;;;16.06;56.74;101114.91;5042909;28;1984;-51
2022/09/08 10:01:39;;;;;;;;;;;;;;;16.04;56.73;101114.34;5054045;28;986;-52
2022/09/08 10:04:13;;;;;;;;;;;;;;;16.00;56.98;101125.00;5056617;28;1037;-53
2022/09/08 10:06:57;;;;;;;;;;;;;;;17.44;55.63;101117.59;5041524;28;1168;-50
2022/09/08 10:09:32;;;;;;;;;;;;;;;16.85;57.09;101107.75;5058831;28;966;-53
2022/09/08 10:12:04;;;;;;;;;;;;;;;16.58;57.70;101105.13;5055677;28;1148;-52
2022/09/08 10:14:47;;;;;;;;;;;;;;;16.44;57.78;101102.03;5060518;28;1013;-53
2022/09/08 10:17:13;;;;;;;;;;;;;;;16.39;57.69;101111.03;5073548;28;1926;-54
2022/09/08 10:19:47;;;;;;;;;;;;;;;16.37;57.50;101113.22;5055727;28;1361;-50
2022/09/08 10:22:19;;;;;;;;;;;;;;;16.29;57.53;101094.50;5049479;28;953;-54
2022/09/08 10:25:03;;;;;;;;;;;;;;;16.29;57.36;101099.19;5060899;28;1200;-51
2022/09/08 10:27:51;;;;;;;;;;;;;;;16.24;57.42;101103.53;5048549;28;1273;-52
2022/09/08 10:30:19;;;;;;;;;;;;;;;16.21;57.25;101108.72;5030911;28;1432;-52
2022/09/08 10:33:00;;;;;;;;;;;;;;;16.15;57.45;101120.75;5058745;28;1207;-53
2022/09/08 10:35:25;;;;;;;;;;;;;;;16.17;57.09;101107.59;5057806;28;882;-54
2022/09/08 10:38:07;;;;;;;;;;;;;;;16.10;57.57;101109.72;5056670;28;1910;-55
2022/09/08 10:40:51;;;;;;;;;;;;;;;16.07;57.50;101113.81;5053253;28;1563;-53
2022/09/08 10:43:29;;;;;;;;;;;;;;;16.08;57.20;101110.81;5053156;28;1068;-53
2022/09/08 10:45:57;;;;;;;;;;;;;;;16.02;57.38;101111.88;5054777;28;1211;-52
2022/09/08 10:48:39;;;;;;;;;;;;;;;16.03;57.39;101110.78;5066328;28;1063;-54
2022/09/08 10:51:23;;;;;;;;;;;;;;;15.98;57.24;101105.25;5055912;28;938;-52
2022/09/08 10:54:14;;;;;;;;;;;;;;;15.99;57.26;101106.06;5058353;28;1025;-55
2022/09/08 10:56:39;;;;;;;;;;;;;;;15.90;57.57;101101.06;5020879;28;1231;-52
2022/09/08 10:59:15;;;;;;;;;;;;;;;16.43;57.42;101101.19;5059859;28;1917;-53
2022/09/08 11:01:59;;;;;;;;;;;;;;;17.57;56.32;101097.03;5072944;28;1123;-54
2022/09/08 11:04:24;;;;;;;;;;;;;;;16.79;57.94;101097.84;5068746;28;1330;-54
2022/09/08 11:07:09;;;;;;;;;;;;;;;16.54;58.22;101095.78;5076199;28;1321;-54
2022/09/08 11:09:53;;;;;;;;;;;;;;;16.43;58.14;101092.94;5072549;28;985;-54
2022/09/08 11:12:18;;;;;;;;;;;;;;;16.35;57.81;101087.97;5078886;28;952;-55
2022/09/08 11:15:02;;;;;;;;;;;;;;;16.32;57.67;101096.72;5078937;28;941;-55
2022/09/08 11:17:28;;;;;;;;;;;;;;;16.31;57.74;101089.56;5075279;28;1902;-56
2022/09/08 11:20:12;;;;;;;;;;;;;;;16.20;57.93;101093.34;5054807;28;1152;-55
2022/09/08 11:22:55;;;;;;;;;;;;;;;16.19;57.79;101105.44;5077775;28;1071;-54
2022/09/08 11:25:39;;;;;;;;;;;;;;;16.19;57.46;101108.16;5056455;28;1235;-56
2022/09/08 11:28:23;;;;;;;;;;;;;;;16.11;57.71;101097.69;5078512;28;1124;-57
2022/09/08 11:30:55;;;;;;;;;;;;;;;16.11;57.32;101095.75;5089779;28;1057;-55
2022/09/08 11:33:32;;;;;;;;;;;;;;;16.07;57.31;101097.38;5096955;28;1173;-55
2022/09/08 11:36:16;;;;;;;;;;;;;;;16.07;57.53;101087.25;5061352;28;879;-56
2022/09/08 11:38:41;;;;;;;;;;;;;;;16.01;57.41;101088.28;5079492;28;1914;-58
2022/09/08 11:41:07;;;;;;;;;;;;;;;16.00;57.43;101088.53;5081490;28;1318;-56
2022/09/08 11:43:35;;;;;;;;;;;;;;;16.81;57.63;101083.84;5071942;28;1383;-50
2022/09/08 11:46:20;;;;;;;;;;;;;;;17.15;57.74;101077.94;5067884;28;1337;-54
2022/09/08 11:49:09;;;;;;;;;;;;;;;16.65;58.40;101083.75;5074854;28;882;-53
2022/09/08 11:51:54;;;;;;;;;;;;;;;16.48;58.41;101080.34;5053784;28;982;-49
2022/09/08 11:54:42;;;;;;;;;;;;;;;16.39;58.04;101077.28;5073528;28;969;-51
2022/09/08 11:57:24;;;;;;;;;;;;;;;16.39;57.90;101071.81;5077049;28;1636;-50
2022/09/08 11:59:52;;;;;;;;;;;;;;;16.29;57.62;101071.75;5050035;28;1075;-52
2022/09/08 12:02:21;;;;;;;;;;;;;;;16.27;57.92;101082.16;5072523;28;1076;-51
2022/09/08 12:04:51;;;;;;;;;;;;;;;16.31;57.65;101080.53;5063326;28;1004;-48
2022/09/08 12:07:27;;;;;;;;;;;;;;;16.20;57.97;101069.50;5059688;28;1206;-47
2022/09/08 12:10:05;;;;;;;;;;;;;;;16.20;57.49;101080.47;5073150;28;1275;-49
2022/09/08 12:12:33;;;;;;;;;;;;;;;16.14;57.58;101075.19;5075741;28;983;-50
2022/09/08 12:15:07;;;;;;;;;;;;;;;16.14;57.67;101080.69;5059280;28;1187;-49
2022/09/08 12:17:39;;;;;;;;;;;;;;;16.09;57.54;101078.75;5079603;28;1893;-50
2022/09/08 12:20:15;;;;;;;;;;;;;;;16.07;57.42;101075.41;5077290;28;1048;-51
2022/09/08 12:22:47;;;;;;;;;;;;;;;16.79;57.73;101080.50;5057746;28;1014;-52
2022/09/08 12:25:17;;;;;;;;;;;;;;;17.33;57.67;101085.69;5076506;28;957;-51
2022/09/08 12:27:46;;;;;;;;;;;;;;;16.82;58.51;101080.00;5059654;28;1096;-50
2022/09/08 12:30:14;;;;;;;;;;;;;;;16.62;58.35;101081.56;5088797;28;1066;-49
2022/09/08 12:32:51;;;;;;;;;;;;;;;16.54;58.14;101073.81;5057584;28;1094;-52
2022/09/08 12:35:20;;;;;;;;;;;;;;;16.42;58.39;101072.09;5074063;28;1179;-52
2022/09/08 12:37:45;;;;;;;;;;;;;;;16.35;58.12;101071.50;5087682;28;1901;-53
2022/09/08 12:40:11;;;;;;;;;;;;;;;16.36;57.85;101061.34;5077115;28;1127;-51
2022/09/08 12:42:46;;;;;;;;;;;;;;;16.33;57.81;101072.88;5080391;28;1449;-49
2022/09/08 12:45:24;;;;;;;;;;;;;;;16.23;57.75;101063.47;5081911;28;976;-49
2022/09/08 12:47:53;;;;;;;;;;;;;;;16.19;57.78;101059.59;5077307;28;925;-50
2022/09/08 12:50:29;;;;;;;;;;;;;;;16.21;57.48;101062.06;5076677;28;1091;-51
2022/09/08 12:52:54;;;;;;;;;;;;;;;16.18;57.29;101059.88;5053346;28;1120;-48
2022/09/08 12:55:23;;;;;;;;;;;;;;;16.15;57.32;101054.91;5065061;28;1282;-47
2022/09/08 12:58:01;;;;;;;;;;;;;;;16.14;57.44;101061.47;5076186;28;1972;-51
2022/09/08 13:00:35;;;;;;;;;;;;;;;16.11;57.56;101056.53;5076475;28;839;-49
2022/09/08 13:03:13;;;;;;;;;;;;;;;16.07;57.29;101058.97;5076156;28;942;-49
2022/09/08 13:05:58;;;;;;;;;;;;;;;16.76;57.76;101066.25;5066863;28;1415;-49
2022/09/08 13:08:23;;;;;;;;;;;;;;;17.26;58.03;101057.63;5055720;28;1204;-52